sensor_id;sensor_type;location;lat;lon;timestamp;P1;durP1;ratioP1;P2;durP2;ratioP2
61696;SDS011;47610;52.252;20.922;2022-12-05T00:04:09;25.50;;;15.00;;
61696;SDS011;47610;52.252;20.922;2022-12-05T00:16:55;24.60;;;13.10;;
61696;SDS011;47610;52.252;20.922;2022-12-05T00:22:17;21.10;;;12.50;;
61696;SDS011;47610;52.252;20.922;2022-12-05T00:27:40;21.80;;;13.90;;
61696;SDS011;47610;52.252;20.922;2022-12-05T00:33:05;19.50;;;12.00;;
61696;SDS011;47610;52.252;20.922;2022-12-05T00:38:27;22.20;;;12.70;;
61696;SDS011;47610;52.252;20.922;2022-12-05T00:43:49;26.90;;;13.50;;
61696;SDS011;47610;52.252;20.922;2022-12-05T00:49:12;22.30;;;12.90;;
61696;SDS011;47610;52.252;20.922;2022-12-05T00:54:35;26.30;;;14.00;;
61696;SDS011;47610;52.252;20.922;2022-12-05T01:05:20;19.80;;;11.30;;
61696;SDS011;47610;52.252;20.922;2022-12-05T01:10:50;21.00;;;13.00;;
61696;SDS011;47610;52.252;20.922;2022-12-05T01:16:18;20.60;;;10.80;;
61696;SDS011;47610;52.252;20.922;2022-12-05T01:21:43;27.70;;;14.40;;
61696;SDS011;47610;52.252;20.922;2022-12-05T01:27:08;24.80;;;13.30;;
61696;SDS011;47610;52.252;20.922;2022-12-05T01:32:30;29.50;;;14.80;;
61696;SDS011;47610;52.252;20.922;2022-12-05T01:37:52;29.00;;;14.30;;
61696;SDS011;47610;52.252;20.922;2022-12-05T01:43:17;22.90;;;13.60;;
61696;SDS011;47610;52.252;20.922;2022-12-05T01:48:40;23.40;;;13.20;;
61696;SDS011;47610;52.252;20.922;2022-12-05T01:54:03;20.00;;;12.00;;
61696;SDS011;47610;52.252;20.922;2022-12-05T01:59:28;23.50;;;14.80;;
61696;SDS011;47610;52.252;20.922;2022-12-05T02:06:30;21.30;;;12.90;;
61696;SDS011;47610;52.252;20.922;2022-12-05T02:11:54;23.50;;;12.40;;
61696;SDS011;47610;52.252;20.922;2022-12-05T02:17:26;24.00;;;13.50;;
61696;SDS011;47610;52.252;20.922;2022-12-05T02:28:58;20.70;;;12.10;;
61696;SDS011;47610;52.252;20.922;2022-12-05T02:34:40;23.00;;;12.40;;
61696;SDS011;47610;52.252;20.922;2022-12-05T02:40:14;23.80;;;13.80;;
61696;SDS011;47610;52.252;20.922;2022-12-05T02:45:45;20.90;;;12.30;;
61696;SDS011;47610;52.252;20.922;2022-12-05T02:51:13;22.50;;;12.50;;
61696;SDS011;47610;52.252;20.922;2022-12-05T02:56:41;18.60;;;11.00;;
61696;SDS011;47610;52.252;20.922;2022-12-05T03:02:06;20.10;;;12.40;;
61696;SDS011;47610;52.252;20.922;2022-12-05T03:07:42;25.20;;;13.60;;
61696;SDS011;47610;52.252;20.922;2022-12-05T03:13:09;19.10;;;10.80;;
61696;SDS011;47610;52.252;20.922;2022-12-05T03:18:40;21.70;;;12.50;;
61696;SDS011;47610;52.252;20.922;2022-12-05T03:24:08;17.20;;;10.90;;
61696;SDS011;47610;52.252;20.922;2022-12-05T03:29:34;35.80;;;17.60;;
61696;SDS011;47610;52.252;20.922;2022-12-05T03:35:02;21.20;;;12.00;;
61696;SDS011;47610;52.252;20.922;2022-12-05T03:40:33;13.90;;;8.50;;
61696;SDS011;47610;52.252;20.922;2022-12-05T03:46:03;15.90;;;9.40;;
61696;SDS011;47610;52.252;20.922;2022-12-05T03:51:32;19.80;;;11.50;;
61696;SDS011;47610;52.252;20.922;2022-12-05T03:56:59;15.50;;;10.00;;
61696;SDS011;47610;52.252;20.922;2022-12-05T04:02:27;18.50;;;11.40;;
61696;SDS011;47610;52.252;20.922;2022-12-05T04:07:56;17.80;;;10.90;;
61696;SDS011;47610;52.252;20.922;2022-12-05T04:13:24;15.40;;;10.30;;
61696;SDS011;47610;52.252;20.922;2022-12-05T04:21:11;16.20;;;10.40;;
61696;SDS011;47610;52.252;20.922;2022-12-05T04:26:34;15.90;;;10.20;;
61696;SDS011;47610;52.252;20.922;2022-12-05T04:32:03;15.70;;;9.70;;
61696;SDS011;47610;52.252;20.922;2022-12-05T04:37:30;17.50;;;11.10;;
61696;SDS011;47610;52.252;20.922;2022-12-05T04:42:57;18.40;;;10.70;;
61696;SDS011;47610;52.252;20.922;2022-12-05T04:48:24;18.50;;;12.40;;
61696;SDS011;47610;52.252;20.922;2022-12-05T04:53:47;17.00;;;11.50;;
61696;SDS011;47610;52.252;20.922;2022-12-05T04:59:13;17.80;;;10.20;;
61696;SDS011;47610;52.252;20.922;2022-12-05T05:04:35;21.20;;;12.30;;
61696;SDS011;47610;52.252;20.922;2022-12-05T05:10:00;23.40;;;13.00;;
61696;SDS011;47610;52.252;20.922;2022-12-05T05:15:22;18.80;;;11.40;;
61696;SDS011;47610;52.252;20.922;2022-12-05T05:20:43;17.20;;;10.60;;
61696;SDS011;47610;52.252;20.922;2022-12-05T05:26:04;17.60;;;11.40;;
61696;SDS011;47610;52.252;20.922;2022-12-05T05:31:26;16.90;;;10.80;;
61696;SDS011;47610;52.252;20.922;2022-12-05T05:36:50;18.70;;;11.20;;
61696;SDS011;47610;52.252;20.922;2022-12-05T05:42:11;18.20;;;10.80;;
61696;SDS011;47610;52.252;20.922;2022-12-05T05:47:33;15.30;;;9.80;;
61696;SDS011;47610;52.252;20.922;2022-12-05T05:52:54;21.30;;;11.90;;
61696;SDS011;47610;52.252;20.922;2022-12-05T05:58:15;21.00;;;12.30;;
61696;SDS011;47610;52.252;20.922;2022-12-05T06:09:09;15.90;;;9.60;;
61696;SDS011;47610;52.252;20.922;2022-12-05T06:14:33;15.80;;;9.70;;
61696;SDS011;47610;52.252;20.922;2022-12-05T06:19:55;19.70;;;10.70;;
61696;SDS011;47610;52.252;20.922;2022-12-05T06:25:18;18.60;;;10.40;;
61696;SDS011;47610;52.252;20.922;2022-12-05T06:30:41;21.00;;;11.90;;
61696;SDS011;47610;52.252;20.922;2022-12-05T06:36:05;23.50;;;11.30;;
61696;SDS011;47610;52.252;20.922;2022-12-05T06:41:30;14.60;;;8.70;;
61696;SDS011;47610;52.252;20.922;2022-12-05T06:46:54;16.50;;;10.00;;
61696;SDS011;47610;52.252;20.922;2022-12-05T06:52:18;18.80;;;10.40;;
61696;SDS011;47610;52.252;20.922;2022-12-05T06:57:41;15.30;;;9.60;;
61696;SDS011;47610;52.252;20.922;2022-12-05T07:03:03;17.90;;;11.40;;
61696;SDS011;47610;52.252;20.922;2022-12-05T07:08:25;21.40;;;12.40;;
61696;SDS011;47610;52.252;20.922;2022-12-05T07:13:50;13.50;;;8.60;;
61696;SDS011;47610;52.252;20.922;2022-12-05T07:19:13;15.40;;;10.30;;
61696;SDS011;47610;52.252;20.922;2022-12-05T07:24:37;21.10;;;11.50;;
61696;SDS011;47610;52.252;20.922;2022-12-05T07:30:00;20.30;;;12.00;;
61696;SDS011;47610;52.252;20.922;2022-12-05T07:35:23;21.60;;;12.60;;
61696;SDS011;47610;52.252;20.922;2022-12-05T07:40:48;20.10;;;11.20;;
61696;SDS011;47610;52.252;20.922;2022-12-05T07:46:11;18.00;;;10.60;;
61696;SDS011;47610;52.252;20.922;2022-12-05T07:51:33;24.10;;;12.30;;
61696;SDS011;47610;52.252;20.922;2022-12-05T07:56:57;15.50;;;8.80;;
61696;SDS011;47610;52.252;20.922;2022-12-05T08:02:19;20.60;;;10.50;;
61696;SDS011;47610;52.252;20.922;2022-12-05T08:07:41;20.10;;;10.40;;
61696;SDS011;47610;52.252;20.922;2022-12-05T08:13:06;16.30;;;10.70;;
61696;SDS011;47610;52.252;20.922;2022-12-05T08:28:07;18.00;;;11.50;;
61696;SDS011;47610;52.252;20.922;2022-12-05T08:33:30;21.20;;;11.90;;
61696;SDS011;47610;52.252;20.922;2022-12-05T08:38:55;21.10;;;11.50;;
61696;SDS011;47610;52.252;20.922;2022-12-05T08:44:19;19.10;;;10.80;;
61696;SDS011;47610;52.252;20.922;2022-12-05T08:49:44;22.50;;;12.30;;
61696;SDS011;47610;52.252;20.922;2022-12-05T08:55:09;20.60;;;11.80;;
61696;SDS011;47610;52.252;20.922;2022-12-05T09:00:33;21.60;;;12.90;;
61696;SDS011;47610;52.252;20.922;2022-12-05T09:06:04;21.70;;;12.00;;
61696;SDS011;47610;52.252;20.922;2022-12-05T09:11:30;22.70;;;13.30;;
61696;SDS011;47610;52.252;20.922;2022-12-05T09:16:56;26.70;;;15.00;;
61696;SDS011;47610;52.252;20.922;2022-12-05T09:22:19;22.60;;;12.70;;
61696;SDS011;47610;52.252;20.922;2022-12-05T09:27:42;18.40;;;9.60;;
61696;SDS011;47610;52.252;20.922;2022-12-05T09:33:05;19.00;;;11.80;;
61696;SDS011;47610;52.252;20.922;2022-12-05T09:38:27;24.80;;;13.50;;
61696;SDS011;47610;52.252;20.922;2022-12-05T09:43:51;27.40;;;13.90;;
61696;SDS011;47610;52.252;20.922;2022-12-05T09:49:20;22.70;;;13.60;;
61696;SDS011;47610;52.252;20.922;2022-12-05T09:54:46;22.90;;;12.80;;
61696;SDS011;47610;52.252;20.922;2022-12-05T10:00:15;20.00;;;11.40;;
61696;SDS011;47610;52.252;20.922;2022-12-05T10:05:40;28.00;;;14.90;;
61696;SDS011;47610;52.252;20.922;2022-12-05T10:11:10;21.30;;;11.70;;
61696;SDS011;47610;52.252;20.922;2022-12-05T10:16:39;23.60;;;12.70;;
61696;SDS011;47610;52.252;20.922;2022-12-05T10:22:10;24.40;;;13.60;;
61696;SDS011;47610;52.252;20.922;2022-12-05T10:27:37;19.20;;;10.50;;
61696;SDS011;47610;52.252;20.922;2022-12-05T10:43:57;22.90;;;11.70;;
61696;SDS011;47610;52.252;20.922;2022-12-05T10:49:22;28.90;;;15.40;;
61696;SDS011;47610;52.252;20.922;2022-12-05T10:54:48;31.80;;;13.40;;
61696;SDS011;47610;52.252;20.922;2022-12-05T11:00:18;27.60;;;13.90;;
61696;SDS011;47610;52.252;20.922;2022-12-05T11:05:50;24.90;;;12.30;;
61696;SDS011;47610;52.252;20.922;2022-12-05T11:11:19;24.10;;;12.20;;
61696;SDS011;47610;52.252;20.922;2022-12-05T11:16:50;27.60;;;13.50;;
61696;SDS011;47610;52.252;20.922;2022-12-05T11:22:16;28.80;;;14.50;;
61696;SDS011;47610;52.252;20.922;2022-12-05T11:27:41;24.40;;;14.00;;
61696;SDS011;47610;52.252;20.922;2022-12-05T11:33:18;22.70;;;12.10;;
61696;SDS011;47610;52.252;20.922;2022-12-05T11:38:44;29.80;;;14.80;;
61696;SDS011;47610;52.252;20.922;2022-12-05T11:49:49;25.90;;;13.30;;
61696;SDS011;47610;52.252;20.922;2022-12-05T11:55:27;30.30;;;13.60;;
61696;SDS011;47610;52.252;20.922;2022-12-05T12:00:58;31.10;;;15.50;;
61696;SDS011;47610;52.252;20.922;2022-12-05T12:06:30;25.10;;;12.70;;
61696;SDS011;47610;52.252;20.922;2022-12-05T12:12:03;24.30;;;12.70;;
61696;SDS011;47610;52.252;20.922;2022-12-05T12:17:33;24.80;;;12.40;;
61696;SDS011;47610;52.252;20.922;2022-12-05T12:23:12;25.80;;;13.00;;
61696;SDS011;47610;52.252;20.922;2022-12-05T12:28:49;23.60;;;13.20;;
61696;SDS011;47610;52.252;20.922;2022-12-05T12:34:36;25.60;;;12.60;;
61696;SDS011;47610;52.252;20.922;2022-12-05T12:40:13;31.10;;;14.90;;
61696;SDS011;47610;52.252;20.922;2022-12-05T12:45:50;31.80;;;14.70;;
61696;SDS011;47610;52.252;20.922;2022-12-05T12:51:24;19.50;;;10.20;;
61696;SDS011;47610;52.252;20.922;2022-12-05T13:00:55;30.60;;;14.60;;
61696;SDS011;47610;52.252;20.922;2022-12-05T13:06:28;31.50;;;15.40;;
61696;SDS011;47610;52.252;20.922;2022-12-05T13:11:56;36.30;;;17.80;;
61696;SDS011;47610;52.252;20.922;2022-12-05T13:17:24;28.60;;;13.70;;
61696;SDS011;47610;52.252;20.922;2022-12-05T13:22:49;34.20;;;15.70;;
61696;SDS011;47610;52.252;20.922;2022-12-05T13:28:17;32.40;;;13.60;;
61696;SDS011;47610;52.252;20.922;2022-12-05T13:33:47;25.90;;;13.70;;
61696;SDS011;47610;52.252;20.922;2022-12-05T13:39:16;31.00;;;15.60;;
61696;SDS011;47610;52.252;20.922;2022-12-05T13:44:42;32.80;;;14.70;;
61696;SDS011;47610;52.252;20.922;2022-12-05T13:50:08;31.70;;;15.60;;
61696;SDS011;47610;52.252;20.922;2022-12-05T13:55:37;26.70;;;12.80;;
61696;SDS011;47610;52.252;20.922;2022-12-05T14:07:05;29.20;;;15.00;;
61696;SDS011;47610;52.252;20.922;2022-12-05T14:17:49;31.50;;;13.60;;
61696;SDS011;47610;52.252;20.922;2022-12-05T14:23:29;28.40;;;14.10;;
61696;SDS011;47610;52.252;20.922;2022-12-05T14:29:05;35.50;;;15.60;;
61696;SDS011;47610;52.252;20.922;2022-12-05T14:34:36;30.60;;;12.40;;
61696;SDS011;47610;52.252;20.922;2022-12-05T14:40:16;28.70;;;13.10;;
61696;SDS011;47610;52.252;20.922;2022-12-05T14:57:52;31.90;;;14.90;;
61696;SDS011;47610;52.252;20.922;2022-12-05T15:03:16;34.60;;;18.10;;
61696;SDS011;47610;52.252;20.922;2022-12-05T15:08:44;31.00;;;15.10;;
61696;SDS011;47610;52.252;20.922;2022-12-05T15:14:09;36.00;;;15.70;;
61696;SDS011;47610;52.252;20.922;2022-12-05T15:19:38;34.70;;;16.80;;
61696;SDS011;47610;52.252;20.922;2022-12-05T15:30:54;31.70;;;16.10;;
61696;SDS011;47610;52.252;20.922;2022-12-05T15:37:42;29.70;;;15.50;;
61696;SDS011;47610;52.252;20.922;2022-12-05T15:43:28;27.30;;;15.10;;
61696;SDS011;47610;52.252;20.922;2022-12-05T15:48:51;35.30;;;16.40;;
61696;SDS011;47610;52.252;20.922;2022-12-05T15:54:15;33.10;;;15.50;;
61696;SDS011;47610;52.252;20.922;2022-12-05T15:59:42;35.70;;;16.80;;
61696;SDS011;47610;52.252;20.922;2022-12-05T16:05:17;34.50;;;16.70;;
61696;SDS011;47610;52.252;20.922;2022-12-05T16:10:44;38.10;;;17.40;;
61696;SDS011;47610;52.252;20.922;2022-12-05T16:16:06;29.80;;;14.90;;
61696;SDS011;47610;52.252;20.922;2022-12-05T16:21:34;32.40;;;15.90;;
61696;SDS011;47610;52.252;20.922;2022-12-05T16:26:59;29.80;;;15.20;;
61696;SDS011;47610;52.252;20.922;2022-12-05T16:32:25;30.10;;;14.90;;
61696;SDS011;47610;52.252;20.922;2022-12-05T16:37:47;38.70;;;18.70;;
61696;SDS011;47610;52.252;20.922;2022-12-05T16:43:17;50.70;;;19.40;;
61696;SDS011;47610;52.252;20.922;2022-12-05T16:48:44;39.60;;;17.40;;
61696;SDS011;47610;52.252;20.922;2022-12-05T16:54:27;42.20;;;18.70;;
61696;SDS011;47610;52.252;20.922;2022-12-05T16:59:49;37.00;;;17.00;;
61696;SDS011;47610;52.252;20.922;2022-12-05T17:05:13;41.40;;;18.90;;
61696;SDS011;47610;52.252;20.922;2022-12-05T17:10:35;37.00;;;16.90;;
61696;SDS011;47610;52.252;20.922;2022-12-05T17:15:57;37.00;;;17.90;;
61696;SDS011;47610;52.252;20.922;2022-12-05T17:21:20;33.60;;;14.70;;
61696;SDS011;47610;52.252;20.922;2022-12-05T17:26:45;38.30;;;18.20;;
61696;SDS011;47610;52.252;20.922;2022-12-05T17:32:09;36.10;;;17.70;;
61696;SDS011;47610;52.252;20.922;2022-12-05T17:37:31;36.40;;;19.30;;
61696;SDS011;47610;52.252;20.922;2022-12-05T17:42:54;36.40;;;18.00;;
61696;SDS011;47610;52.252;20.922;2022-12-05T17:53:35;37.30;;;18.20;;
61696;SDS011;47610;52.252;20.922;2022-12-05T17:58:58;32.00;;;17.10;;
61696;SDS011;47610;52.252;20.922;2022-12-05T18:04:20;26.80;;;14.90;;
61696;SDS011;47610;52.252;20.922;2022-12-05T18:09:42;33.90;;;16.30;;
61696;SDS011;47610;52.252;20.922;2022-12-05T18:15:04;28.90;;;17.10;;
61696;SDS011;47610;52.252;20.922;2022-12-05T18:20:27;30.20;;;16.40;;
61696;SDS011;47610;52.252;20.922;2022-12-05T18:25:56;30.40;;;16.10;;
61696;SDS011;47610;52.252;20.922;2022-12-05T18:31:19;29.60;;;15.50;;
61696;SDS011;47610;52.252;20.922;2022-12-05T18:36:41;31.10;;;17.90;;
61696;SDS011;47610;52.252;20.922;2022-12-05T18:42:04;35.60;;;17.90;;
61696;SDS011;47610;52.252;20.922;2022-12-05T18:47:26;28.40;;;15.90;;
61696;SDS011;47610;52.252;20.922;2022-12-05T18:52:48;30.10;;;17.30;;
61696;SDS011;47610;52.252;20.922;2022-12-05T18:58:10;28.70;;;16.80;;
61696;SDS011;47610;52.252;20.922;2022-12-05T19:03:32;27.60;;;16.50;;
61696;SDS011;47610;52.252;20.922;2022-12-05T19:08:55;36.60;;;18.60;;
61696;SDS011;47610;52.252;20.922;2022-12-05T19:14:19;28.80;;;16.60;;
61696;SDS011;47610;52.252;20.922;2022-12-05T19:19:42;31.60;;;17.10;;
61696;SDS011;47610;52.252;20.922;2022-12-05T19:25:05;31.70;;;17.60;;
61696;SDS011;47610;52.252;20.922;2022-12-05T19:30:29;27.30;;;14.70;;
61696;SDS011;47610;52.252;20.922;2022-12-05T19:35:51;34.20;;;18.40;;
61696;SDS011;47610;52.252;20.922;2022-12-05T19:41:14;33.40;;;18.50;;
61696;SDS011;47610;52.252;20.922;2022-12-05T19:46:38;33.90;;;17.70;;
61696;SDS011;47610;52.252;20.922;2022-12-05T19:52:01;29.90;;;16.90;;
61696;SDS011;47610;52.252;20.922;2022-12-05T19:57:23;33.00;;;19.00;;
61696;SDS011;47610;52.252;20.922;2022-12-05T20:13:46;36.30;;;20.80;;
61696;SDS011;47610;52.252;20.922;2022-12-05T20:19:07;29.00;;;16.20;;
61696;SDS011;47610;52.252;20.922;2022-12-05T20:24:28;33.60;;;18.60;;
61696;SDS011;47610;52.252;20.922;2022-12-05T20:29:50;32.90;;;18.00;;
61696;SDS011;47610;52.252;20.922;2022-12-05T20:35:11;36.20;;;18.70;;
61696;SDS011;47610;52.252;20.922;2022-12-05T20:40:32;34.80;;;18.90;;
61696;SDS011;47610;52.252;20.922;2022-12-05T20:45:52;38.90;;;22.10;;
61696;SDS011;47610;52.252;20.922;2022-12-05T20:51:14;39.20;;;20.80;;
61696;SDS011;47610;52.252;20.922;2022-12-05T20:56:37;32.30;;;18.90;;
61696;SDS011;47610;52.252;20.922;2022-12-05T21:01:59;36.30;;;19.70;;
61696;SDS011;47610;52.252;20.922;2022-12-05T21:07:21;35.10;;;19.30;;
61696;SDS011;47610;52.252;20.922;2022-12-05T21:12:42;37.10;;;20.90;;
61696;SDS011;47610;52.252;20.922;2022-12-05T21:18:03;36.20;;;20.20;;
61696;SDS011;47610;52.252;20.922;2022-12-05T21:23:25;33.70;;;17.70;;
61696;SDS011;47610;52.252;20.922;2022-12-05T21:28:46;35.90;;;19.60;;
61696;SDS011;47610;52.252;20.922;2022-12-05T21:34:11;33.80;;;17.30;;
61696;SDS011;47610;52.252;20.922;2022-12-05T21:39:34;29.80;;;17.30;;
61696;SDS011;47610;52.252;20.922;2022-12-05T21:44:56;30.40;;;16.70;;
61696;SDS011;47610;52.252;20.922;2022-12-05T21:55:01;39.90;;;20.80;;
61696;SDS011;47610;52.252;20.922;2022-12-05T22:00:24;39.20;;;21.60;;
61696;SDS011;47610;52.252;20.922;2022-12-05T22:05:47;30.50;;;16.40;;
61696;SDS011;47610;52.252;20.922;2022-12-05T22:11:10;39.50;;;21.50;;
61696;SDS011;47610;52.252;20.922;2022-12-05T22:16:34;33.20;;;19.40;;
61696;SDS011;47610;52.252;20.922;2022-12-05T22:21:58;32.50;;;18.20;;
61696;SDS011;47610;52.252;20.922;2022-12-05T22:27:20;33.90;;;18.60;;
61696;SDS011;47610;52.252;20.922;2022-12-05T22:32:43;41.80;;;22.40;;
61696;SDS011;47610;52.252;20.922;2022-12-05T22:38:06;30.20;;;17.50;;
61696;SDS011;47610;52.252;20.922;2022-12-05T22:43:28;38.00;;;21.00;;
61696;SDS011;47610;52.252;20.922;2022-12-05T22:48:52;34.30;;;19.90;;
61696;SDS011;47610;52.252;20.922;2022-12-05T22:54:15;37.50;;;20.60;;
61696;SDS011;47610;52.252;20.922;2022-12-05T22:59:37;38.30;;;20.20;;
61696;SDS011;47610;52.252;20.922;2022-12-05T23:05:00;36.70;;;19.00;;
61696;SDS011;47610;52.252;20.922;2022-12-05T23:10:23;35.30;;;18.10;;
61696;SDS011;47610;52.252;20.922;2022-12-05T23:15:48;38.10;;;18.10;;
61696;SDS011;47610;52.252;20.922;2022-12-05T23:21:13;38.30;;;21.50;;
61696;SDS011;47610;52.252;20.922;2022-12-05T23:26:39;32.80;;;18.00;;
61696;SDS011;47610;52.252;20.922;2022-12-05T23:32:04;29.90;;;18.30;;
61696;SDS011;47610;52.252;20.922;2022-12-05T23:37:31;32.60;;;18.50;;
61696;SDS011;47610;52.252;20.922;2022-12-05T23:42:55;37.90;;;21.70;;
61696;SDS011;47610;52.252;20.922;2022-12-05T23:48:18;30.60;;;17.20;;
61696;SDS011;47610;52.252;20.922;2022-12-05T23:53:44;39.40;;;20.90;;
61696;SDS011;47610;52.252;20.922;2022-12-05T23:59:13;34.40;;;17.50;;
